Time;durP1;ratioP1;P1;durP2;ratioP2;P2;SDS_P1;SDS_P2;PMS_P1;PMS_P2;Temp;Humidity;BMP_temperature;BMP_pressure;BME280_temperature;BME280_humidity;BME280_pressure;Samples;Min_cycle;Max_cycle;Signal;HPM_P1;HPM_P2
2022/06/08 00:01:03;;;;;;;1.42;1.02;;;;;;;17.90;100.00;98686.59;7394721;19;20603;-82
2022/06/08 00:03:34;;;;;;;2.10;0.98;;;;;;;17.94;100.00;98678.56;7391276;19;20021;-82
2022/06/08 00:06:01;;;;;;;4.38;0.98;;;;;;;17.86;100.00;98677.00;7391747;19;20018;-82
2022/06/08 00:08:27;;;;;;;1.48;0.65;;;;;;;17.78;100.00;98671.31;7392387;19;20010;-82
2022/06/08 00:10:53;;;;;;;2.78;0.70;;;;;;;17.91;100.00;98674.03;7394426;19;20353;-82
2022/06/08 00:13:20;;;;;;;1.05;0.47;;;;;;;17.88;100.00;98675.16;7392776;19;20018;-82
2022/06/08 00:15:46;;;;;;;2.35;0.63;;;;;;;17.92;100.00;98669.91;7392251;19;20029;-82
2022/06/08 00:18:12;;;;;;;1.50;0.60;;;;;;;17.90;100.00;98669.72;7393564;19;20094;-82
2022/06/08 00:20:39;;;;;;;2.35;0.82;;;;;;;17.89;100.00;98662.56;7394108;19;20407;-82
2022/06/08 00:23:06;;;;;;;1.88;0.52;;;;;;;17.86;100.00;98655.22;7392975;19;20022;-82
2022/06/08 00:25:33;;;;;;;1.05;0.30;;;;;;;17.91;100.00;98662.75;7393357;19;20015;-82
2022/06/08 00:27:59;;;;;;;1.17;0.52;;;;;;;17.93;100.00;98648.88;7392454;19;20019;-81
2022/06/08 00:30:25;;;;;;;4.13;0.57;;;;;;;17.89;100.00;98645.66;7391422;19;20489;-82
2022/06/08 00:32:53;;;;;;;0.80;0.80;;;;;;;17.87;100.00;98651.09;7391458;19;20011;-82
2022/06/08 00:35:19;;;;;;;4.32;0.40;;;;;;;17.87;100.00;98644.69;7391021;19;20015;-82
2022/06/08 00:37:45;;;;;;;0.82;0.30;;;;;;;17.82;100.00;98632.28;7391368;19;20018;-82
2022/06/08 00:40:13;;;;;;;0.80;0.40;;;;;;;17.72;100.00;98639.72;7390259;19;20467;-82
2022/06/08 00:42:41;;;;;;;0.47;0.17;;;;;;;17.77;100.00;98629.63;7390456;19;20011;-83
2022/06/08 00:45:11;;;;;;;0.77;0.15;;;;;;;17.68;100.00;98613.25;7387979;19;20018;-83
2022/06/08 00:47:44;;;;;;;6.73;1.10;;;;;;;17.72;100.00;98610.81;7391166;19;20026;-83
2022/06/08 00:50:15;;;;;;;0.35;0.30;;;;;;;17.72;100.00;98600.31;7390937;19;20359;-83
2022/06/08 00:52:43;;;;;;;1.88;0.47;;;;;;;17.72;100.00;98591.88;7390633;19;20010;-83
2022/06/08 00:55:12;;;;;;;3.50;0.50;;;;;;;17.69;100.00;98578.91;7390971;19;20019;-83
2022/06/08 00:58:08;;;;;;;2.92;0.30;;;;;;;17.61;100.00;98560.44;7391858;19;20039;-83
2022/06/08 01:00:37;;;;;;;5.05;0.73;;;;;;;17.68;100.00;98546.41;7391473;19;20014;-83
2022/06/08 01:03:07;;;;;;;1.48;0.75;;;;;;;17.76;100.00;98541.56;7389730;19;20011;-81
2022/06/08 01:06:06;;;;;;;6.43;0.45;;;;;;;17.73;100.00;98551.16;7390415;19;20021;-82
2022/06/08 01:08:42;;;;;;;1.65;0.55;;;;;;;17.56;100.00;98559.31;7389414;19;20033;-82
2022/06/08 01:11:32;;;;;;;1.90;0.32;;;;;;;17.56;100.00;98569.81;7393418;19;20037;-81
2022/06/08 01:14:03;;;;;;;2.75;0.30;;;;;;;17.59;100.00;98568.69;7389436;19;20034;-81
2022/06/08 01:16:31;;;;;;;1.45;0.98;;;;;;;17.46;100.00;98555.47;7389064;19;20010;-83
2022/06/08 01:19:00;;;;;;;1.63;0.43;;;;;;;17.44;100.00;98558.09;7390324;19;20082;-82
2022/06/08 01:21:30;;;;;;;0.60;0.50;;;;;;;17.35;100.00;98562.16;7393618;19;20011;-81
2022/06/08 01:24:11;;;;;;;0.47;0.43;;;;;;;17.28;100.00;98562.84;7389276;19;20015;-82
2022/06/08 01:26:43;;;;;;;0.77;0.28;;;;;;;17.26;100.00;98556.28;7389607;19;20015;-81
2022/06/08 01:29:21;;;;;;;8.85;0.85;;;;;;;17.36;100.00;98551.66;7389930;19;20019;-80
2022/06/08 01:31:56;;;;;;;1.65;0.10;;;;;;;17.27;100.00;98554.97;7394552;19;20018;-81
2022/06/08 01:34:38;;;;;;;0.28;0.25;;;;;;;17.35;100.00;98539.66;7388427;19;20074;-81
2022/06/08 01:37:17;;;;;;;1.75;0.30;;;;;;;17.31;100.00;98532.84;7387791;19;20353;-82
2022/06/08 01:39:43;;;;;;;1.40;0.47;;;;;;;17.30;100.00;98531.38;7391312;19;20488;-82
2022/06/08 01:42:46;;;;;;;2.63;0.68;;;;;;;17.29;100.00;98536.25;7401083;19;20030;-83
2022/06/08 01:45:37;;;;;;;3.25;0.85;;;;;;;17.28;100.00;98522.72;7394272;19;20468;-83
2022/06/08 01:48:04;;;;;;;1.05;0.40;;;;;;;17.23;100.00;98526.44;7397075;19;20364;-83
2022/06/08 01:50:48;;;;;;;1.95;0.32;;;;;;;17.15;100.00;98520.75;7397700;19;20371;-83
2022/06/08 01:53:47;;;;;;;1.65;0.30;;;;;;;17.14;100.00;98518.50;7394624;19;20002;-83
2022/06/08 01:56:37;;;;;;;0.93;0.50;;;;;;;17.11;100.00;98522.41;7394136;19;20014;-83
2022/06/08 01:59:18;;;;;;;0.63;0.40;;;;;;;17.12;100.00;98515.50;7396527;19;20011;-81
2022/06/08 02:01:57;;;;;;;0.47;0.30;;;;;;;17.11;100.00;98514.72;7400524;19;20018;-82
2022/06/08 02:04:39;;;;;;;0.60;0.50;;;;;;;17.08;100.00;98509.47;7394256;19;20015;-82
2022/06/08 02:07:12;;;;;;;0.30;0.10;;;;;;;17.09;100.00;98499.69;7399594;19;20029;-81
2022/06/08 02:09:46;;;;;;;1.83;1.15;;;;;;;17.15;100.00;98491.88;7410951;19;20033;-82
2022/06/08 02:12:13;;;;;;;0.63;0.20;;;;;;;17.17;100.00;98486.47;7398503;19;20018;-82
2022/06/08 02:15:02;;;;;;;0.28;0.28;;;;;;;17.16;100.00;98496.19;7394749;19;20043;-82
2022/06/08 02:17:49;;;;;;;0.17;0.10;;;;;;;17.18;100.00;98485.13;7393257;19;20018;-81
2022/06/08 02:20:32;;;;;;;3.65;0.40;;;;;;;17.19;100.00;98490.22;7396614;19;20006;-82
2022/06/08 02:23:09;;;;;;;0.28;0.15;;;;;;;17.14;100.00;98493.19;7399853;19;20014;-81
2022/06/08 02:25:44;;;;;;;0.75;0.57;;;;;;;17.11;100.00;98485.84;7395018;19;20062;-81
2022/06/08 02:28:24;;;;;;;1.45;0.35;;;;;;;17.09;100.00;98499.69;7395965;19;20018;-82
2022/06/08 02:31:04;;;;;;;1.27;0.10;;;;;;;17.01;100.00;98484.84;7397530;19;20019;-82
2022/06/08 02:36:35;;;;;;;3.05;0.60;;;;;;;17.16;100.00;98479.31;7394283;19;20070;-82
2022/06/08 02:39:11;;;;;;;0.73;0.60;;;;;;;17.11;100.00;98474.59;7395625;19;20023;-82
2022/06/08 02:41:40;;;;;;;1.50;0.40;;;;;;;17.10;100.00;98473.09;7398559;19;20010;-81
2022/06/08 02:44:15;;;;;;;1.27;0.50;;;;;;;17.02;100.00;98472.31;7393291;19;20011;-82
2022/06/08 02:46:58;;;;;;;0.93;0.28;;;;;;;16.84;100.00;98476.88;7393908;19;20694;-82
2022/06/08 02:49:29;;;;;;;0.82;0.28;;;;;;;15.90;100.00;98467.94;7394856;19;20380;-81
2022/06/08 02:52:01;;;;;;;1.48;0.57;;;;;;;15.78;100.00;98470.28;7396965;19;20014;-82
2022/06/08 02:54:29;;;;;;;0.60;0.32;;;;;;;15.75;100.00;98467.78;7393265;19;20793;-82
2022/06/08 02:57:12;;;;;;;1.23;0.60;;;;;;;15.72;100.00;98468.88;7391720;19;20074;-82
2022/06/08 02:59:44;;;;;;;0.63;0.40;;;;;;;15.89;100.00;98467.22;7394236;19;20022;-81
2022/06/08 03:02:19;;;;;;;0.30;0.10;;;;;;;15.86;100.00;98468.28;7393247;19;20380;-82
2022/06/08 03:04:53;;;;;;;1.10;0.38;;;;;;;15.70;100.00;98465.88;7391826;19;20014;-82
2022/06/08 03:07:26;;;;;;;2.47;0.40;;;;;;;15.63;100.00;98460.94;7394970;19;20467;-82
2022/06/08 03:09:54;;;;;;;0.52;0.25;;;;;;;15.61;100.00;98453.06;7395182;19;20026;-82
2022/06/08 03:12:30;;;;;;;2.20;0.28;;;;;;;15.63;100.00;98458.13;7394195;19;20025;-82
2022/06/08 03:14:56;;;;;;;0.43;0.20;;;;;;;15.64;100.00;98456.81;7392429;19;20002;-82
2022/06/08 03:17:29;;;;;;;0.30;0.20;;;;;;;15.68;100.00;98457.25;7392182;19;20047;-82
2022/06/08 03:19:57;;;;;;;1.58;0.45;;;;;;;15.63;100.00;98444.09;7393209;19;20014;-82
2022/06/08 03:22:23;;;;;;;0.50;0.25;;;;;;;15.62;100.00;98443.31;7397193;19;20025;-82
2022/06/08 03:24:49;;;;;;;0.55;0.20;;;;;;;15.63;100.00;98438.47;7392059;19;20015;-82
2022/06/08 03:27:17;;;;;;;0.60;0.40;;;;;;;15.67;100.00;98433.28;7392982;19;20020;-82
2022/06/08 03:29:48;;;;;;;1.98;0.90;;;;;;;15.69;100.00;98439.09;7392976;19;20464;-82
2022/06/08 03:32:16;;;;;;;0.88;0.30;;;;;;;15.66;100.00;98437.38;7392462;19;20473;-82
2022/06/08 03:34:43;;;;;;;0.70;0.70;;;;;;;15.65;100.00;98424.66;7390872;19;20014;-82
2022/06/08 03:37:10;;;;;;;0.43;0.43;;;;;;;15.70;100.00;98432.94;7391351;19;20011;-82
2022/06/08 03:39:41;;;;;;;0.30;0.30;;;;;;;15.70;100.00;98435.72;7392608;19;20486;-83
2022/06/08 03:42:07;;;;;;;0.20;0.20;;;;;;;15.69;100.00;98425.06;7397957;19;20328;-82
2022/06/08 03:44:33;;;;;;;1.55;0.90;;;;;;;15.72;100.00;98427.53;7393134;19;20011;-83
2022/06/08 03:47:10;;;;;;;0.82;0.30;;;;;;;15.73;100.00;98433.91;7394113;19;20022;-82
2022/06/08 03:49:37;;;;;;;0.82;0.20;;;;;;;15.71;100.00;98422.47;7394492;19;20050;-82
2022/06/08 03:52:10;;;;;;;0.55;0.30;;;;;;;15.70;100.00;98420.97;7396785;19;20014;-83
2022/06/08 03:54:40;;;;;;;0.52;0.38;;;;;;;15.70;100.00;98429.38;7391592;19;20013;-83
2022/06/08 03:57:09;;;;;;;0.57;0.57;;;;;;;15.71;100.00;98430.88;7391472;19;20031;-83
2022/06/08 03:59:41;;;;;;;2.78;0.40;;;;;;;15.69;100.00;98433.47;7392558;19;20086;-83
2022/06/08 04:02:10;;;;;;;1.88;0.30;;;;;;;15.70;100.00;98430.13;7396496;19;20590;-83
2022/06/08 04:04:38;;;;;;;1.83;0.38;;;;;;;15.71;100.00;98433.69;7390486;19;20337;-83
2022/06/08 04:07:06;;;;;;;0.68;0.43;;;;;;;15.69;100.00;98420.22;7392434;19;20026;-83
2022/06/08 04:09:33;;;;;;;3.42;0.32;;;;;;;15.70;100.00;98426.59;7391902;19;20037;-83
2022/06/08 04:11:59;;;;;;;3.03;0.50;;;;;;;15.72;100.00;98435.22;7395728;19;20094;-83
2022/06/08 04:14:27;;;;;;;0.13;0.10;;;;;;;15.75;100.00;98426.44;7390181;19;20034;-83
2022/06/08 04:16:53;;;;;;;1.02;0.30;;;;;;;15.80;100.00;98433.22;7390310;19;20018;-83
2022/06/08 04:19:21;;;;;;;0.32;0.15;;;;;;;15.77;100.00;98426.66;7391603;19;20018;-83
2022/06/08 04:21:48;;;;;;;0.80;0.25;;;;;;;15.75;100.00;98439.72;7395288;19;20022;-83
2022/06/08 04:24:19;;;;;;;0.80;0.50;;;;;;;15.74;100.00;98427.00;7390994;19;20011;-83
2022/06/08 04:26:52;;;;;;;0.20;0.13;;;;;;;15.76;100.00;98430.78;7392050;19;20037;-83
2022/06/08 04:29:25;;;;;;;0.40;0.25;;;;;;;15.75;100.00;98431.28;7392686;19;20014;-83
2022/06/08 04:31:52;;;;;;;0.40;0.30;;;;;;;15.77;100.00;98443.50;7395131;19;20070;-83
2022/06/08 04:34:21;;;;;;;2.47;0.32;;;;;;;15.80;100.00;98441.66;7389545;19;20415;-83
2022/06/08 04:36:47;;;;;;;10.73;1.13;;;;;;;15.77;100.00;98449.09;7390090;19;20026;-83
2022/06/08 04:39:16;;;;;;;0.20;0.20;;;;;;;15.80;100.00;98450.06;7391105;19;20058;-83
2022/06/08 04:41:50;;;;;;;0.80;0.25;;;;;;;15.81;100.00;98435.47;7395403;19;20015;-84
2022/06/08 04:44:17;;;;;;;0.50;0.32;;;;;;;15.81;100.00;98440.34;7389295;19;20014;-83
2022/06/08 04:46:44;;;;;;;0.73;0.20;;;;;;;15.82;100.00;98450.28;7391012;19;20047;-84
2022/06/08 04:49:16;;;;;;;0.40;0.40;;;;;;;15.84;100.00;98442.06;7391223;19;20334;-83
2022/06/08 04:51:45;;;;;;;1.42;0.50;;;;;;;15.84;100.00;98450.47;7394791;19;20120;-82
2022/06/08 04:54:11;;;;;;;0.47;0.10;;;;;;;15.88;100.00;98448.09;7397229;19;20019;-83
2022/06/08 04:56:40;;;;;;;0.90;0.20;;;;;;;15.90;100.00;98451.09;7411820;19;20015;-83
2022/06/08 04:59:08;;;;;;;0.20;0.10;;;;;;;15.93;100.00;98450.03;7398574;19;20021;-84
2022/06/08 05:01:37;;;;;;;;;;;;;;;15.97;100.00;98444.81;7395913;19;20023;-84
2022/06/08 05:04:07;;;;;;;0.10;0.10;;;;;;;15.99;100.00;98447.81;7389760;19;19926;-83
2022/06/08 05:06:34;;;;;;;0.30;0.10;;;;;;;16.00;100.00;98452.16;7390097;19;20014;-83
2022/06/08 05:09:00;;;;;;;0.75;0.40;;;;;;;16.02;100.00;98441.13;7390787;19;20011;-83
2022/06/08 05:11:28;;;;;;;0.20;0.20;;;;;;;16.03;100.00;98445.44;7393956;19;20021;-83
2022/06/08 05:13:54;;;;;;;0.40;0.17;;;;;;;16.05;100.00;98445.63;7389155;19;20504;-84
2022/06/08 05:16:21;;;;;;;0.88;0.35;;;;;;;16.02;100.00;98443.94;7394214;19;20037;-83
2022/06/08 05:18:52;;;;;;;0.35;0.35;;;;;;;16.06;100.00;98443.59;7397378;19;20010;-83
2022/06/08 05:21:20;;;;;;;0.52;0.20;;;;;;;16.07;100.00;98437.41;7400203;19;20066;-83
2022/06/08 05:23:49;;;;;;;2.10;0.10;;;;;;;16.07;100.00;98447.91;7395769;19;20022;-83
2022/06/08 05:26:20;;;;;;;0.10;0.00;;;;;;;16.09;100.00;98440.44;7397462;19;20014;-83
2022/06/08 05:28:47;;;;;;;0.10;0.10;;;;;;;16.10;100.00;98447.56;7397536;19;20070;-83
2022/06/08 05:31:15;;;;;;;0.68;0.43;;;;;;;16.13;100.00;98446.47;7399884;19;20043;-83
2022/06/08 05:33:44;;;;;;;0.63;0.20;;;;;;;16.18;100.00;98450.44;7397067;19;20018;-83
2022/06/08 05:36:16;;;;;;;0.20;0.17;;;;;;;16.19;100.00;98449.91;7396604;19;20464;-83
2022/06/08 05:38:43;;;;;;;0.10;0.10;;;;;;;16.18;100.00;98456.03;7396720;19;20018;-83
2022/06/08 05:41:09;;;;;;;0.20;0.20;;;;;;;16.16;100.00;98456.59;7401305;19;20023;-83
2022/06/08 05:43:38;;;;;;;0.10;0.10;;;;;;;16.17;100.00;98452.50;7395793;19;20352;-83
2022/06/08 05:46:04;;;;;;;0.25;0.25;;;;;;;16.20;100.00;98450.66;7399332;19;20022;-83
2022/06/08 05:48:32;;;;;;;0.10;0.00;;;;;;;16.28;100.00;98454.28;7396886;19;20471;-83
2022/06/08 05:51:02;;;;;;;1.35;0.15;;;;;;;16.25;100.00;98450.50;7399112;19;20350;-83
2022/06/08 05:53:29;;;;;;;0.73;0.20;;;;;;;16.25;100.00;98464.56;7396200;19;20094;-83
2022/06/08 05:55:55;;;;;;;0.10;0.10;;;;;;;16.32;100.00;98463.88;7395809;19;20571;-83
2022/06/08 05:58:24;;;;;;;0.38;0.10;;;;;;;16.31;100.00;98462.34;7396730;19;20435;-82
2022/06/08 06:00:52;;;;;;;2.15;0.38;;;;;;;16.34;100.00;98458.47;7398182;19;20010;-82
2022/06/08 06:03:19;;;;;;;5.07;0.40;;;;;;;16.37;100.00;98457.34;7396344;19;20026;-83
2022/06/08 06:05:46;;;;;;;0.45;0.08;;;;;;;16.41;100.00;98462.63;7396761;19;20020;-83
2022/06/08 06:08:16;;;;;;;0.73;0.20;;;;;;;16.49;100.00;98450.16;7396421;19;20021;-83
2022/06/08 06:10:52;;;;;;;3.13;0.38;;;;;;;16.54;100.00;98457.72;7397603;19;20025;-83
2022/06/08 06:13:25;;;;;;;0.82;0.20;;;;;;;16.58;100.00;98452.50;7396010;19;20026;-83
2022/06/08 06:15:55;;;;;;;0.17;0.10;;;;;;;16.68;100.00;98453.50;7395816;19;20356;-83
2022/06/08 06:18:22;;;;;;;0.73;0.30;;;;;;;16.75;100.00;98454.09;7396502;19;20034;-83
2022/06/08 06:21:03;;;;;;;0.10;0.00;;;;;;;16.75;100.00;98457.69;7397447;19;20407;-83
2022/06/08 06:23:47;;;;;;;0.15;0.10;;;;;;;16.70;100.00;98469.81;7395247;19;20035;-83
2022/06/08 06:26:31;;;;;;;0.10;0.00;;;;;;;16.65;100.00;98463.03;7393301;19;20040;-83
2022/06/08 06:29:21;;;;;;;0.10;0.10;;;;;;;16.72;100.00;98460.84;7394739;19;20472;-83
2022/06/08 06:32:12;;;;;;;0.32;0.13;;;;;;;16.77;100.00;98471.94;7399583;19;20361;-83
2022/06/08 06:34:44;;;;;;;0.10;0.03;;;;;;;16.79;100.00;98468.56;7392953;19;20030;-83
2022/06/08 06:37:11;;;;;;;1.15;0.10;;;;;;;16.80;100.00;98467.28;7393018;19;20031;-83
2022/06/08 06:39:38;;;;;;;0.10;0.10;;;;;;;16.87;100.00;98466.59;7394705;19;20016;-83
2022/06/08 06:42:21;;;;;;;0.68;0.20;;;;;;;16.89;100.00;98475.94;7395359;19;20011;-83
2022/06/08 06:45:05;;;;;;;0.00;0.00;;;;;;;16.92;100.00;98474.09;7392483;19;20007;-83
2022/06/08 06:47:40;;;;;;;0.52;0.20;;;;;;;17.00;100.00;98474.91;7394778;19;20015;-83
2022/06/08 06:50:16;;;;;;;0.10;0.00;;;;;;;17.07;100.00;98474.19;7396936;19;20038;-82
2022/06/08 06:52:46;;;;;;;0.32;0.17;;;;;;;17.12;100.00;98482.50;7394146;19;20342;-82
2022/06/08 06:55:33;;;;;;;0.08;0.00;;;;;;;17.02;100.00;98477.94;7392074;19;20463;-82
2022/06/08 06:58:12;;;;;;;0.65;0.30;;;;;;;17.06;100.00;98479.09;7394405;19;20038;-82
2022/06/08 07:00:38;;;;;;;0.32;0.30;;;;;;;17.09;100.00;98482.81;7395388;19;20078;-82
2022/06/08 07:03:08;;;;;;;0.10;0.10;;;;;;;17.08;100.00;98492.59;7394329;19;20014;-82
2022/06/08 07:05:35;;;;;;;6.53;0.20;;;;;;;17.04;100.00;98487.31;7394469;19;20384;-83
2022/06/08 07:08:03;;;;;;;0.65;0.28;;;;;;;17.09;100.00;98488.44;7394447;19;20002;-83
2022/06/08 07:10:31;;;;;;;0.20;0.00;;;;;;;17.09;100.00;98483.59;7395472;19;20035;-82
2022/06/08 07:12:58;;;;;;;0.10;0.10;;;;;;;17.16;100.00;98488.50;7394078;19;20010;-83
2022/06/08 07:15:26;;;;;;;0.30;0.10;;;;;;;17.26;100.00;98492.31;7393503;19;20014;-82
2022/06/08 07:17:54;;;;;;;0.40;0.05;;;;;;;17.33;100.00;98502.09;7392255;19;20015;-82
2022/06/08 07:20:23;;;;;;;0.10;0.00;;;;;;;17.38;100.00;98495.56;7395205;19;20045;-81
2022/06/08 07:22:50;;;;;;;1.00;0.30;;;;;;;17.41;100.00;98486.03;7398549;19;20013;-81
2022/06/08 07:25:19;;;;;;;0.30;0.10;;;;;;;17.43;100.00;98489.03;7392153;19;20022;-82
2022/06/08 07:27:46;;;;;;;0.57;0.25;;;;;;;17.48;100.00;98490.91;7393110;19;20467;-82
2022/06/08 07:30:14;;;;;;;0.20;0.10;;;;;;;17.51;100.00;98495.47;7393700;19;20014;-81
2022/06/08 07:32:40;;;;;;;0.10;0.00;;;;;;;17.67;100.00;98491.41;7394820;19;20018;-81
2022/06/08 07:35:07;;;;;;;0.45;0.20;;;;;;;17.77;100.00;98489.59;7393122;19;20027;-81
2022/06/08 07:37:34;;;;;;;0.68;0.10;;;;;;;17.93;100.00;98491.13;7392054;19;20351;-81
2022/06/08 07:40:00;;;;;;;2.60;0.35;;;;;;;17.96;100.00;98490.00;7393563;19;20010;-81
2022/06/08 07:42:26;;;;;;;0.30;0.15;;;;;;;18.04;100.00;98490.03;7396262;19;20018;-81
2022/06/08 07:44:52;;;;;;;0.10;0.00;;;;;;;18.08;100.00;98499.59;7411505;19;20408;-81
2022/06/08 07:47:18;;;;;;;0.35;0.10;;;;;;;17.94;100.00;98492.63;7396159;19;20018;-82
2022/06/08 07:49:49;;;;;;;0.10;0.10;;;;;;;17.91;100.00;98499.38;7394528;19;20038;-81
2022/06/08 07:52:17;;;;;;;;;;;;;;;17.96;100.00;98492.81;7395522;19;20090;-81
2022/06/08 07:54:45;;;;;;;0.10;0.03;;;;;;;17.97;100.00;98496.41;7393237;19;19923;-81
2022/06/08 07:57:23;;;;;;;0.10;0.10;;;;;;;17.94;100.00;98487.00;7393173;19;20011;-82
2022/06/08 07:59:50;;;;;;;0.20;0.20;;;;;;;18.10;100.00;98482.88;7393935;19;20021;-81
2022/06/08 08:02:16;;;;;;;0.10;0.00;;;;;;;18.11;100.00;98478.78;7394025;19;20043;-81
2022/06/08 08:04:44;;;;;;;0.10;0.10;;;;;;;18.19;100.00;98484.44;7391305;19;20048;-81
2022/06/08 08:07:12;;;;;;;0.03;0.00;;;;;;;18.25;100.00;98475.78;7392329;19;20011;-80
2022/06/08 08:09:38;;;;;;;0.10;0.00;;;;;;;18.35;100.00;98474.66;7393188;19;20014;-81
2022/06/08 08:12:05;;;;;;;0.00;0.00;;;;;;;18.47;100.00;98469.47;7396534;19;20018;-80
2022/06/08 08:14:33;;;;;;;0.00;0.00;;;;;;;18.65;100.00;98465.50;7393095;19;20067;-81
2022/06/08 08:17:02;;;;;;;0.25;0.10;;;;;;;18.75;100.00;98466.44;7392772;19;20102;-81
2022/06/08 08:19:29;;;;;;;0.10;0.00;;;;;;;18.91;100.00;98462.28;7392421;19;20101;-81
2022/06/08 08:21:56;;;;;;;0.38;0.20;;;;;;;18.95;100.00;98462.63;7397627;19;20357;-81
2022/06/08 08:24:22;;;;;;;0.20;0.10;;;;;;;18.99;100.00;98463.03;7391586;19;20019;-81
2022/06/08 08:26:50;;;;;;;0.55;0.10;;;;;;;19.05;100.00;98466.41;7392058;19;20508;-80
2022/06/08 08:29:17;;;;;;;0.08;0.00;;;;;;;19.12;100.00;98462.81;7391947;19;20010;-81
2022/06/08 08:31:44;;;;;;;7.30;0.35;;;;;;;19.03;100.00;98468.28;7395122;19;20011;-81
2022/06/08 08:34:11;;;;;;;0.10;0.10;;;;;;;19.10;100.00;98473.88;7390649;19;20037;-81
2022/06/08 08:36:37;;;;;;;0.10;0.00;;;;;;;19.24;100.00;98466.72;7390039;19;20051;-79
2022/06/08 08:39:05;;;;;;;0.30;0.00;;;;;;;19.34;100.00;98470.47;7392881;19;20025;-81
2022/06/08 08:44:30;;;;;;;0.08;0.00;;;;;;;19.45;100.00;98475.72;7391652;19;20098;-80
2022/06/08 08:47:05;;;;;;;1.55;0.00;;;;;;;19.50;100.00;98477.59;7390588;19;20018;-81
2022/06/08 08:49:33;;;;;;;0.10;0.10;;;;;;;19.52;100.00;98477.75;7389076;19;20022;-80
2022/06/08 08:52:24;;;;;;;1.38;0.10;;;;;;;19.56;100.00;98480.19;7395254;19;20027;-81
2022/06/08 08:54:53;;;;;;;;;;;;;;;19.50;100.00;98477.59;7389575;19;20019;-81
2022/06/08 08:57:53;;;;;;;1.98;0.30;;;;;;;19.24;100.00;98478.00;7388231;19;19915;-81
2022/06/08 09:00:24;;;;;;;0.00;0.00;;;;;;;19.22;100.00;98483.47;7393245;19;20082;-80
2022/06/08 09:05:39;;;;;;;1.00;0.10;;;;;;;19.16;100.00;98488.56;7392309;19;20464;-80
2022/06/08 09:08:10;;;;;;;0.10;0.00;;;;;;;19.19;100.00;98487.44;7392114;19;20041;-81
2022/06/08 09:10:37;;;;;;;0.65;0.17;;;;;;;19.05;100.00;98488.22;7391717;19;20014;-80
2022/06/08 09:13:04;;;;;;;2.25;0.10;;;;;;;18.91;100.00;98487.66;7391209;19;20363;-81
2022/06/08 09:15:48;;;;;;;0.50;0.30;;;;;;;18.93;100.00;98485.03;7389903;19;20042;-79
2022/06/08 09:18:40;;;;;;;0.10;0.00;;;;;;;19.06;100.00;98490.47;7391356;19;20014;-81
2022/06/08 09:21:21;;;;;;;3.60;0.20;;;;;;;18.99;100.00;98485.59;7392365;19;20478;-81
2022/06/08 09:23:56;;;;;;;0.65;0.05;;;;;;;18.93;100.00;98490.66;7389119;19;20019;-81
2022/06/08 09:26:22;;;;;;;0.13;0.13;;;;;;;18.98;100.00;98484.09;7392136;19;20022;-81
2022/06/08 09:29:02;;;;;;;5.50;0.10;;;;;;;19.17;100.00;98484.41;7389871;19;20018;-82
2022/06/08 09:31:33;;;;;;;0.00;0.00;;;;;;;19.19;100.00;98484.59;7393714;19;20025;-81
2022/06/08 09:34:22;;;;;;;0.08;0.00;;;;;;;19.11;100.00;98485.94;7388828;19;20045;-80
2022/06/08 09:37:11;;;;;;;0.10;0.10;;;;;;;19.10;100.00;98482.34;7389674;19;20494;-81
2022/06/08 09:39:39;;;;;;;0.10;0.00;;;;;;;19.22;100.00;98491.19;7389421;19;20022;-81
2022/06/08 09:42:43;;;;;;;0.00;0.00;;;;;;;19.31;100.00;98494.19;7395108;19;20022;-81
2022/06/08 09:45:25;;;;;;;0.52;0.10;;;;;;;19.37;100.00;98486.28;7385942;19;20014;-81
2022/06/08 09:51:28;;;;;;;1.92;0.20;;;;;;;19.08;100.00;98510.41;7392849;19;20022;-80
2022/06/08 09:54:03;;;;;;;0.00;0.00;;;;;;;19.11;100.00;98511.34;7390333;19;20033;-80
2022/06/08 09:56:54;;;;;;;0.00;0.00;;;;;;;19.21;100.00;98503.81;7387973;19;20019;-80
2022/06/08 09:59:36;;;;;;;0.43;0.15;;;;;;;19.41;100.00;98500.00;7388195;19;20022;-80
2022/06/08 10:02:26;;;;;;;0.03;0.00;;;;;;;19.83;100.00;98508.72;7396258;19;20038;-81
2022/06/08 10:04:52;;;;;;;0.00;0.00;;;;;;;20.21;100.00;98509.28;7394896;19;20011;-81
2022/06/08 10:07:22;;;;;;;0.20;0.00;;;;;;;20.30;100.00;98517.91;7395972;19;20030;-81
2022/06/08 10:10:40;;;;;;;0.00;0.00;;;;;;;20.51;100.00;98519.66;7395519;19;20019;-80
2022/06/08 10:13:18;;;;;;;0.73;0.22;;;;;;;21.07;100.00;98518.84;7394644;19;20010;-81
2022/06/08 10:15:51;;;;;;;1.23;0.20;;;;;;;21.45;100.00;98516.38;7395572;19;20023;-80
2022/06/08 10:18:29;;;;;;;0.10;0.00;;;;;;;21.24;100.00;98526.63;7397312;19;20014;-78
2022/06/08 10:21:09;;;;;;;0.00;0.00;;;;;;;20.86;100.00;98527.69;7399497;19;20559;-79
2022/06/08 10:23:57;;;;;;;1.35;0.00;;;;;;;20.11;100.00;98540.22;7397147;19;20090;-79
2022/06/08 10:26:34;;;;;;;1.95;0.10;;;;;;;19.70;100.00;98551.31;7396905;19;20026;-78
2022/06/08 10:29:12;;;;;;;0.10;0.10;;;;;;;19.29;100.00;98553.28;7400454;19;20006;-78
2022/06/08 10:31:48;;;;;;;0.00;0.00;;;;;;;19.02;100.00;98557.81;7423254;19;20021;-80
2022/06/08 10:34:23;;;;;;;2.00;0.00;;;;;;;18.97;100.00;98566.47;7398369;19;20078;-81
2022/06/08 10:37:17;;;;;;;0.30;0.20;;;;;;;19.11;100.00;98562.91;7395666;19;20504;-81
2022/06/08 10:39:45;;;;;;;0.17;0.08;;;;;;;19.09;100.00;98562.72;7395247;19;20022;-81
2022/06/08 10:44:59;;;;;;;1.55;0.10;;;;;;;18.93;100.00;98566.84;7392701;19;20467;-81
2022/06/08 10:47:31;;;;;;;9.90;0.17;;;;;;;18.86;100.00;98570.44;7394524;19;20026;-80
2022/06/08 10:50:15;;;;;;;3.03;0.30;;;;;;;19.02;100.00;98568.34;7394574;19;20037;-81
2022/06/08 10:52:49;;;;;;;1.65;0.10;;;;;;;19.26;100.00;98567.75;7396330;19;20010;-81
2022/06/08 10:55:17;;;;;;;0.57;0.10;;;;;;;19.35;100.00;98567.22;7392516;19;20018;-81
2022/06/08 10:57:49;;;;;;;0.55;0.10;;;;;;;19.12;100.00;98567.25;7392530;19;20029;-80
2022/06/08 11:00:41;;;;;;;1.88;0.22;;;;;;;19.00;100.00;98576.63;7395760;19;20029;-80
2022/06/08 11:03:36;;;;;;;0.68;0.40;;;;;;;18.71;100.00;98570.44;7394273;19;20027;-80
2022/06/08 11:06:09;;;;;;;0.40;0.20;;;;;;;18.61;100.00;98569.47;7394245;19;20028;-80
2022/06/08 11:08:51;;;;;;;1.45;0.47;;;;;;;18.55;100.00;98578.09;7393664;19;20015;-81
2022/06/08 11:11:41;;;;;;;0.10;0.00;;;;;;;18.80;100.00;98576.25;7397212;19;20022;-80
2022/06/08 11:14:32;;;;;;;2.38;0.10;;;;;;;19.05;100.00;98576.44;7391179;19;20022;-81
2022/06/08 11:17:09;;;;;;;0.17;0.08;;;;;;;19.70;100.00;98574.69;7392424;19;20778;-81
2022/06/08 11:19:36;;;;;;;0.85;0.30;;;;;;;20.46;100.00;98575.13;7396386;19;20018;-81
2022/06/08 11:22:11;;;;;;;0.77;0.05;;;;;;;20.75;100.00;98579.06;7398027;19;20404;-81
2022/06/08 11:24:42;;;;;;;0.47;0.15;;;;;;;20.81;100.00;98570.38;7394650;19;20030;-81
2022/06/08 11:27:14;;;;;;;4.47;0.10;;;;;;;21.16;100.00;98577.63;7393914;19;20370;-81
2022/06/08 11:29:49;;;;;;;0.75;0.20;;;;;;;21.40;100.00;98574.03;7393356;19;20085;-80
2022/06/08 11:32:38;;;;;;;0.00;0.00;;;;;;;21.65;100.00;98577.56;7394420;19;20022;-80
2022/06/08 11:35:05;;;;;;;0.00;0.00;;;;;;;21.88;100.00;98578.06;7393269;19;20011;-80
2022/06/08 11:37:37;;;;;;;1.15;0.10;;;;;;;21.87;100.00;98579.41;7393353;19;20019;-81
2022/06/08 11:40:27;;;;;;;0.10;0.10;;;;;;;21.66;100.00;98584.72;7395063;19;20028;-80
2022/06/08 11:43:28;;;;;;;0.00;0.00;;;;;;;21.79;100.00;98597.78;7393140;19;20045;-80
2022/06/08 11:45:57;;;;;;;0.00;0.00;;;;;;;22.17;100.00;98592.47;7392647;19;20043;-80
2022/06/08 11:48:30;;;;;;;3.60;0.20;;;;;;;22.18;100.00;98604.53;7394206;19;20365;-81
2022/06/08 11:51:03;;;;;;;0.55;0.00;;;;;;;22.10;100.00;98598.97;7394721;19;20482;-80
2022/06/08 11:53:36;;;;;;;0.00;0.00;;;;;;;22.14;100.00;98599.31;7392775;19;20070;-80
2022/06/08 11:56:22;;;;;;;0.10;0.00;;;;;;;22.10;100.00;98604.66;7392623;19;20003;-78
2022/06/08 11:58:51;;;;;;;0.40;0.00;;;;;;;22.18;100.00;98591.13;7392882;19;20019;-78
2022/06/08 12:01:22;;;;;;;1.00;0.35;;;;;;;22.44;100.00;98603.81;7397590;19;20014;-78
2022/06/08 12:04:01;;;;;;;0.57;0.10;;;;;;;22.68;100.00;98605.78;7392071;19;20047;-80
2022/06/08 12:06:34;;;;;;;2.13;0.10;;;;;;;22.69;100.00;98595.19;7394174;19;20019;-78
2022/06/08 12:09:19;;;;;;;0.10;0.10;;;;;;;23.05;100.00;98598.03;7393813;19;20015;-78